createdAt,value
2022-11-12T00:01:01.798Z,53.07
2022-11-12T00:03:34.640Z,53.16
2022-11-12T00:06:07.748Z,53.11
2022-11-12T00:08:40.764Z,53.14
2022-11-12T00:11:13.926Z,53.14
2022-11-12T00:13:46.775Z,53.12
2022-11-12T00:16:19.774Z,53.15
2022-11-12T00:18:52.794Z,53.27
2022-11-12T00:21:25.785Z,53.34
2022-11-12T00:23:58.644Z,53.30
2022-11-12T00:26:31.844Z,53.30
2022-11-12T00:29:04.817Z,53.29
2022-11-12T00:31:37.872Z,53.33
2022-11-12T00:34:10.698Z,53.33
2022-11-12T00:36:43.848Z,53.37
2022-11-12T00:39:18.073Z,53.43
2022-11-12T00:41:51.859Z,53.44
2022-11-12T00:44:24.827Z,53.44
2022-11-12T00:46:57.781Z,53.58
2022-11-12T00:49:30.727Z,53.58
2022-11-12T00:52:03.776Z,53.63
2022-11-12T00:54:36.858Z,53.61
2022-11-12T00:57:09.742Z,53.64
2022-11-12T00:59:42.879Z,53.63
2022-11-12T01:02:15.758Z,53.71
2022-11-12T01:04:48.934Z,53.72
2022-11-12T01:07:22.744Z,53.69
2022-11-12T01:09:55.901Z,53.68
2022-11-12T01:12:28.971Z,53.66
2022-11-12T01:15:01.883Z,53.68
2022-11-12T01:17:34.752Z,53.64
2022-11-12T01:20:07.791Z,53.68
2022-11-12T01:22:40.774Z,53.59
2022-11-12T01:25:17.988Z,53.63
2022-11-12T01:27:52.020Z,53.58
2022-11-12T01:30:24.957Z,53.52
2022-11-12T01:32:57.961Z,53.52
2022-11-12T01:35:30.908Z,53.52
2022-11-12T01:38:03.810Z,53.52
2022-11-12T01:40:36.613Z,53.52
2022-11-12T01:43:09.887Z,53.48
2022-11-12T01:45:42.939Z,53.50
2022-11-12T01:48:15.898Z,53.50
2022-11-12T01:50:48.965Z,53.49
2022-11-12T01:53:21.864Z,53.46
2022-11-12T01:55:54.938Z,53.46
2022-11-12T01:58:28.387Z,53.41
2022-11-12T02:01:01.073Z,53.41
2022-11-12T02:03:33.843Z,53.46
2022-11-12T02:06:06.972Z,53.48
2022-11-12T02:08:39.867Z,53.48
2022-11-12T02:11:12.896Z,53.51
2022-11-12T02:13:49.012Z,53.52
2022-11-12T02:16:22.001Z,53.45
2022-11-12T02:18:54.909Z,53.51
2022-11-12T02:21:41.930Z,53.57
2022-11-12T02:24:14.894Z,53.55
2022-11-12T02:26:50.937Z,53.49
2022-11-12T02:29:24.035Z,53.53
2022-11-12T02:31:56.869Z,53.53
2022-11-12T02:34:29.942Z,53.61
2022-11-12T02:37:02.887Z,53.62
2022-11-12T02:39:35.904Z,53.54
2022-11-12T02:42:09.058Z,53.60
2022-11-12T02:44:42.066Z,53.61
2022-11-12T02:47:15.017Z,53.57
2022-11-12T02:49:47.960Z,53.58
2022-11-12T02:52:21.039Z,53.60
2022-11-12T02:54:53.941Z,53.62
2022-11-12T02:57:26.928Z,53.58
2022-11-12T03:00:00.105Z,53.56
2022-11-12T03:02:32.964Z,53.55
2022-11-12T03:05:05.997Z,53.63
2022-11-12T03:07:39.045Z,53.63
2022-11-12T03:10:12.040Z,53.61
2022-11-12T03:12:44.997Z,53.53
2022-11-12T03:15:18.218Z,53.51
2022-11-12T03:17:51.009Z,53.50
2022-11-12T03:20:24.097Z,53.48
2022-11-12T03:22:59.948Z,53.47
2022-11-12T03:25:32.872Z,53.47
2022-11-12T03:28:06.003Z,53.46
2022-11-12T03:30:39.190Z,53.44
2022-11-12T03:33:11.949Z,53.42
2022-11-12T03:35:45.077Z,53.41
2022-11-12T03:38:17.991Z,53.46
2022-11-12T03:40:51.106Z,53.46
2022-11-12T03:43:24.004Z,53.45
2022-11-12T03:45:57.217Z,53.40
2022-11-12T03:48:30.107Z,53.39
2022-11-12T03:51:03.073Z,53.37
2022-11-12T03:53:36.117Z,53.38
2022-11-12T03:56:09.123Z,53.37
2022-11-12T03:58:42.106Z,53.35
2022-11-12T04:01:15.210Z,53.34
2022-11-12T04:03:48.130Z,53.34
2022-11-12T04:06:21.000Z,53.33
2022-11-12T04:08:54.129Z,53.36
2022-11-12T04:11:27.050Z,53.38
2022-11-12T04:13:59.887Z,53.36
2022-11-12T04:16:33.264Z,53.37
2022-11-12T04:19:06.113Z,53.36
2022-11-12T04:21:39.146Z,53.37
2022-11-12T04:24:12.059Z,53.37
2022-11-12T04:26:45.036Z,53.32
2022-11-12T04:29:18.181Z,53.27
2022-11-12T04:31:51.195Z,53.35
2022-11-12T04:34:24.236Z,53.34
2022-11-12T04:36:57.144Z,53.35
2022-11-12T04:39:30.174Z,53.28
2022-11-12T04:42:03.064Z,53.38
2022-11-12T04:44:36.153Z,53.34
2022-11-12T04:47:09.336Z,53.33
2022-11-12T04:49:42.207Z,53.31
2022-11-12T04:52:15.102Z,53.29
2022-11-12T04:54:48.160Z,53.31
2022-11-12T04:57:21.081Z,53.33
2022-11-12T04:59:54.190Z,53.27
2022-11-12T05:02:27.262Z,53.32
2022-11-12T05:05:00.231Z,53.29
2022-11-12T05:07:33.201Z,53.34
2022-11-12T05:10:06.122Z,53.27
2022-11-12T05:12:39.195Z,53.33
2022-11-12T05:15:12.201Z,53.34
2022-11-12T05:17:48.320Z,53.35
2022-11-12T05:20:21.217Z,53.26
2022-11-12T05:23:06.227Z,53.29
2022-11-12T05:25:27.177Z,53.35
2022-11-12T05:28:00.259Z,53.32
2022-11-12T05:30:33.179Z,53.27
2022-11-12T05:33:06.403Z,53.28
2022-11-12T05:35:39.163Z,53.30
2022-11-12T05:38:12.268Z,53.29
2022-11-12T05:40:45.199Z,53.28
2022-11-12T05:43:18.284Z,53.25
2022-11-12T05:45:51.187Z,53.27
2022-11-12T05:48:24.805Z,53.28
2022-11-12T05:51:13.576Z,53.23
2022-11-12T05:53:30.208Z,53.25
2022-11-12T05:56:03.189Z,53.31
2022-11-12T05:58:36.273Z,53.31
2022-11-12T06:01:09.199Z,53.31
2022-11-12T06:03:48.372Z,53.31
2022-11-12T06:06:21.139Z,53.32
2022-11-12T06:08:54.304Z,53.31
2022-11-12T06:11:27.203Z,53.26
2022-11-12T06:14:00.193Z,53.25
2022-11-12T06:16:33.194Z,53.25
2022-11-12T06:19:06.356Z,53.21
2022-11-12T06:21:39.382Z,53.24
2022-11-12T06:24:12.298Z,53.24
2022-11-12T06:26:45.321Z,53.21
2022-11-12T06:29:18.209Z,53.22
2022-11-12T06:31:51.237Z,53.21
2022-11-12T06:34:24.452Z,53.21
2022-11-12T06:36:57.374Z,53.19
2022-11-12T06:39:30.326Z,53.19
2022-11-12T06:42:03.364Z,53.18
2022-11-12T06:44:36.348Z,53.20
2022-11-12T06:47:09.382Z,53.19
2022-11-12T06:49:56.333Z,53.20
2022-11-12T06:52:29.260Z,53.15
2022-11-12T06:55:02.305Z,53.16
2022-11-12T06:57:35.175Z,53.13
2022-11-12T07:00:08.341Z,53.09
2022-11-12T07:02:41.400Z,53.06
2022-11-12T07:05:14.520Z,53.01
2022-11-12T07:07:47.693Z,53.01
2022-11-12T07:10:21.398Z,52.96
2022-11-12T07:12:54.369Z,52.90
2022-11-12T07:15:27.110Z,52.27
2022-11-12T07:18:00.240Z,51.58
2022-11-12T07:20:33.394Z,51.95
2022-11-12T07:23:06.404Z,52.16
2022-11-12T07:25:39.035Z,52.23
2022-11-12T07:28:12.312Z,52.24
2022-11-12T07:30:45.359Z,52.24
2022-11-12T07:33:18.337Z,52.26
2022-11-12T07:35:51.437Z,52.32
2022-11-12T07:38:24.308Z,52.32
2022-11-12T07:40:57.161Z,52.30
2022-11-12T07:43:30.229Z,52.29
2022-11-12T07:46:09.093Z,52.29
2022-11-12T07:48:36.158Z,52.27
2022-11-12T07:51:09.382Z,52.25
2022-11-12T07:53:42.367Z,52.28
2022-11-12T07:56:15.357Z,52.27
2022-11-12T07:58:48.425Z,52.28
2022-11-12T08:01:21.535Z,52.27
2022-11-12T08:03:54.293Z,52.26
2022-11-12T08:06:27.495Z,52.24
2022-11-12T08:09:00.291Z,52.28
2022-11-12T08:11:33.452Z,52.18
2022-11-12T08:14:07.431Z,52.21
2022-11-12T08:16:40.459Z,52.22
2022-11-12T08:19:13.111Z,52.21
2022-11-12T08:21:46.617Z,52.20
2022-11-12T08:24:19.137Z,52.15
2022-11-12T08:26:52.319Z,52.17
2022-11-12T08:29:25.408Z,52.11
2022-11-12T08:31:58.460Z,52.15
2022-11-12T08:34:31.558Z,52.15
2022-11-12T08:37:04.653Z,52.10
2022-11-12T08:39:37.440Z,52.10
2022-11-12T08:42:10.139Z,52.13
2022-11-12T08:44:43.314Z,52.11
2022-11-12T08:47:16.448Z,52.12
2022-11-12T08:49:49.553Z,52.09
2022-11-12T08:52:22.668Z,52.09
2022-11-12T08:54:55.492Z,52.07
2022-11-12T08:57:28.190Z,52.07
2022-11-12T09:00:01.239Z,52.17
2022-11-12T09:02:34.515Z,52.00
2022-11-12T09:05:07.610Z,52.08
2022-11-12T09:07:49.963Z,52.09
2022-11-12T09:10:13.504Z,52.16
2022-11-12T09:12:46.454Z,52.21
2022-11-12T09:17:52.505Z,52.34
2022-11-12T09:20:25.544Z,52.24
2022-11-12T09:22:58.779Z,52.35
2022-11-12T09:25:31.617Z,52.31
2022-11-12T09:28:04.618Z,52.30
2022-11-12T09:30:37.361Z,52.32
2022-11-12T09:33:10.511Z,52.38
2022-11-12T09:35:43.543Z,52.36
2022-11-12T09:38:16.586Z,52.32
2022-11-12T09:40:49.342Z,52.32
2022-11-12T09:43:22.244Z,52.36
2022-11-12T09:46:13.966Z,52.39
2022-11-12T09:48:28.755Z,52.33
2022-11-12T09:51:01.451Z,52.20
2022-11-12T09:53:34.697Z,52.27
2022-11-12T09:56:07.699Z,52.22
2022-11-12T09:58:40.456Z,52.23
2022-11-12T10:01:13.644Z,52.28
2022-11-12T10:03:46.543Z,52.22
2022-11-12T10:06:19.690Z,52.24
2022-11-12T10:08:52.778Z,52.22
2022-11-12T10:11:25.595Z,52.28
2022-11-12T10:13:58.680Z,52.26
2022-11-12T10:16:31.716Z,52.24
2022-11-12T10:19:04.621Z,52.24
2022-11-12T10:21:37.742Z,52.24
2022-11-12T10:24:10.765Z,52.27
2022-11-12T10:26:43.604Z,52.23
2022-11-12T10:29:16.328Z,52.25
2022-11-12T10:31:49.369Z,52.26
2022-11-12T10:34:22.714Z,52.30
2022-11-12T10:36:55.749Z,52.19
2022-11-12T10:39:28.842Z,52.25
2022-11-12T10:42:01.760Z,52.25
2022-11-12T10:44:34.351Z,52.33
2022-11-12T10:47:07.361Z,52.33
2022-11-12T10:49:40.651Z,52.30
2022-11-12T10:52:13.588Z,52.37
2022-11-12T10:54:50.970Z,52.37
2022-11-12T10:57:19.617Z,52.36
2022-11-12T10:59:52.363Z,52.37
2022-11-12T11:02:25.462Z,52.36
2022-11-12T11:04:58.759Z,52.38
2022-11-12T11:07:31.413Z,52.32
2022-11-12T11:10:04.645Z,52.35
2022-11-12T11:12:37.661Z,52.36
2022-11-12T11:15:10.395Z,52.36
2022-11-12T11:17:43.805Z,52.39
2022-11-12T11:20:16.675Z,52.31
2022-11-12T11:22:49.401Z,52.31
2022-11-12T11:25:22.803Z,52.35
2022-11-12T11:27:55.525Z,52.32
2022-11-12T11:30:28.753Z,52.32
2022-11-12T11:33:01.784Z,52.31
2022-11-12T11:35:34.403Z,52.31
2022-11-12T11:38:07.401Z,52.38
2022-11-12T11:40:40.550Z,52.33
2022-11-12T11:43:13.695Z,52.32
2022-11-12T11:45:46.788Z,52.40
2022-11-12T11:48:19.704Z,52.35
2022-11-12T11:50:52.841Z,52.38
2022-11-12T11:53:25.809Z,52.44
2022-11-12T11:55:58.905Z,52.32
2022-11-12T11:58:31.427Z,52.35
2022-11-12T12:01:04.449Z,52.36
2022-11-12T12:03:37.661Z,52.42
2022-11-12T12:06:10.452Z,52.39
2022-11-12T12:08:43.639Z,52.35
2022-11-12T12:11:16.584Z,52.42
2022-11-12T12:13:49.508Z,52.35
2022-11-12T12:16:36.382Z,52.38
2022-11-12T12:19:09.620Z,52.37
2022-11-12T12:21:42.757Z,52.44
2022-11-12T12:24:15.869Z,52.44
2022-11-12T12:26:49.078Z,52.50
2022-11-12T12:29:22.842Z,52.32
2022-11-12T12:31:55.864Z,52.34
2022-11-12T12:34:28.791Z,52.44
2022-11-12T12:37:01.902Z,52.45
2022-11-12T12:39:34.820Z,52.42
2022-11-12T12:42:07.946Z,52.43
2022-11-12T12:44:40.947Z,52.43
2022-11-12T12:47:13.780Z,52.38
2022-11-12T12:49:46.577Z,52.38
2022-11-12T12:52:19.923Z,52.35
2022-11-12T12:54:52.859Z,52.21
2022-11-12T12:57:25.840Z,52.23
2022-11-12T12:59:58.786Z,52.22
2022-11-12T13:02:31.959Z,52.32
2022-11-12T13:05:04.762Z,52.29
2022-11-12T13:07:37.681Z,52.31
2022-11-12T13:10:10.805Z,52.28
2022-11-12T13:12:43.931Z,52.32
2022-11-12T13:15:16.589Z,52.31
2022-11-12T13:17:49.823Z,52.28
2022-11-12T13:20:22.941Z,52.38
2022-11-12T13:22:55.813Z,52.36
2022-11-12T13:25:28.719Z,52.34
2022-11-12T13:28:01.799Z,52.40
2022-11-12T13:30:34.782Z,52.40
2022-11-12T13:33:11.688Z,52.39
2022-11-12T13:35:41.025Z,52.47
2022-11-12T13:38:13.598Z,52.44
2022-11-12T13:40:46.774Z,52.42
2022-11-12T13:43:20.093Z,52.37
2022-11-12T13:45:52.698Z,52.45
2022-11-12T13:48:26.007Z,52.37
2022-11-12T13:50:58.911Z,52.38
2022-11-12T13:53:31.642Z,52.42
2022-11-12T13:56:04.674Z,52.38
2022-11-12T13:58:38.110Z,52.43
2022-11-12T14:01:10.955Z,52.38
2022-11-12T14:03:43.784Z,52.38
2022-11-12T14:06:17.029Z,52.40
2022-11-12T14:08:49.956Z,52.44
2022-11-12T14:11:22.635Z,52.43
2022-11-12T14:13:56.047Z,52.44
2022-11-12T14:16:28.940Z,52.41
2022-11-12T14:19:02.116Z,52.38
2022-11-12T14:21:36.043Z,52.38
2022-11-12T14:24:09.031Z,52.34
2022-11-12T14:26:42.110Z,52.37
2022-11-12T14:29:15.058Z,52.37
2022-11-12T14:31:48.082Z,52.40
2022-11-12T14:34:21.057Z,52.38
2022-11-12T14:36:53.811Z,52.33
2022-11-12T14:39:27.107Z,52.35
2022-11-12T14:42:00.021Z,52.40
2022-11-12T14:44:33.147Z,52.35
2022-11-12T14:47:05.870Z,52.39
2022-11-12T14:49:44.041Z,52.33
2022-11-12T14:52:11.994Z,52.35
2022-11-12T14:54:45.113Z,52.37
2022-11-12T14:57:17.977Z,52.38
2022-11-12T14:59:51.275Z,52.35
2022-11-12T15:02:42.723Z,52.41
2022-11-12T15:04:57.141Z,52.40
2022-11-12T15:07:30.144Z,52.30
2022-11-12T15:10:02.878Z,52.35
2022-11-12T15:12:36.018Z,52.38
2022-11-12T15:15:09.152Z,52.43
2022-11-12T15:17:42.141Z,52.39
2022-11-12T15:20:15.020Z,52.45
2022-11-12T15:22:48.015Z,52.42
2022-11-12T15:25:21.197Z,52.45
2022-11-12T15:27:54.028Z,52.50
2022-11-12T15:30:27.020Z,52.46
2022-11-12T15:33:00.164Z,52.40
2022-11-12T15:35:33.144Z,52.49
2022-11-12T15:38:06.119Z,52.44
2022-11-12T15:40:38.863Z,52.44
2022-11-12T15:43:12.098Z,52.43
2022-11-12T15:45:45.259Z,52.42
2022-11-12T15:48:18.174Z,52.44
2022-11-12T15:50:51.089Z,52.48
2022-11-12T15:53:24.324Z,52.44
2022-11-12T15:56:00.115Z,52.40
2022-11-12T15:58:33.135Z,51.99
2022-11-12T16:01:06.514Z,52.06
2022-11-12T16:03:39.158Z,51.63
2022-11-12T16:06:11.994Z,51.92
2022-11-12T16:08:45.075Z,51.89
2022-11-12T16:11:17.843Z,51.93
2022-11-12T16:13:51.226Z,52.00
2022-11-12T16:16:24.285Z,52.01
2022-11-12T16:18:57.202Z,52.01
2022-11-12T16:21:30.179Z,52.12
2022-11-12T16:24:03.062Z,52.08
2022-11-12T16:26:36.187Z,52.12
2022-11-12T16:29:09.121Z,52.13
2022-11-12T16:31:42.382Z,52.14
2022-11-12T16:34:14.882Z,52.20
2022-11-12T16:36:48.257Z,52.13
2022-11-12T16:39:21.111Z,52.20
2022-11-12T16:41:54.155Z,52.17
2022-11-12T16:44:27.270Z,52.19
2022-11-12T16:47:00.361Z,52.25
2022-11-12T16:49:38.393Z,52.17
2022-11-12T16:52:06.035Z,52.17
2022-11-12T16:54:39.190Z,52.21
2022-11-12T16:57:12.153Z,52.24
2022-11-12T16:59:45.278Z,52.19
2022-11-12T17:02:18.343Z,52.21
2022-11-12T17:04:51.256Z,52.18
2022-11-12T17:07:23.935Z,52.25
2022-11-12T17:09:57.000Z,52.26
2022-11-12T17:12:30.308Z,52.21
2022-11-12T17:15:03.197Z,52.22
2022-11-12T17:17:36.361Z,52.24
2022-11-12T17:20:08.928Z,52.24
2022-11-12T17:22:41.913Z,52.25
2022-11-12T17:25:15.205Z,52.32
2022-11-12T17:27:48.315Z,52.30
2022-11-12T17:30:21.263Z,52.25
2022-11-12T17:32:54.375Z,52.30
2022-11-12T17:35:26.946Z,52.28
2022-11-12T17:38:00.150Z,52.38
2022-11-12T17:40:32.948Z,52.33
2022-11-12T17:43:06.003Z,52.36
2022-11-12T17:45:39.132Z,52.35
2022-11-12T17:48:12.344Z,52.42
2022-11-12T17:50:45.314Z,52.41
2022-11-12T17:53:18.190Z,52.40
2022-11-12T17:55:51.359Z,52.42
2022-11-12T17:58:24.301Z,52.09
2022-11-12T18:00:57.425Z,52.08
2022-11-12T18:03:30.492Z,51.94
2022-11-12T18:06:03.152Z,51.43
2022-11-12T18:08:36.133Z,50.97
2022-11-12T18:11:08.996Z,50.86
2022-11-12T18:13:42.040Z,50.53
2022-11-12T18:16:15.210Z,50.33
2022-11-12T18:18:48.194Z,50.36
2022-11-12T18:21:21.091Z,50.34
2022-11-12T18:23:54.102Z,50.40
2022-11-12T18:26:27.268Z,50.34
2022-11-12T18:29:00.060Z,50.29
2022-11-12T18:31:33.026Z,50.33
2022-11-12T18:34:06.235Z,50.29
2022-11-12T18:36:39.030Z,50.48
2022-11-12T18:39:12.037Z,50.61
2022-11-12T18:41:45.156Z,50.82
2022-11-12T18:44:21.967Z,50.86
2022-11-12T18:46:51.112Z,50.93
2022-11-12T18:49:24.256Z,50.92
2022-11-12T18:51:57.240Z,50.98
2022-11-12T18:54:30.166Z,51.00
2022-11-12T18:57:03.079Z,50.97
2022-11-12T18:59:36.236Z,50.94
2022-11-12T19:02:09.150Z,50.92
2022-11-12T19:04:45.388Z,50.91
2022-11-12T19:07:15.293Z,50.86
2022-11-12T19:09:48.186Z,50.86
2022-11-12T19:12:21.457Z,50.88
2022-11-12T19:14:54.102Z,50.83
2022-11-12T19:17:31.059Z,50.83
2022-11-12T19:20:00.232Z,50.79
2022-11-12T19:22:33.150Z,50.80
2022-11-12T19:25:06.195Z,50.78
2022-11-12T19:27:39.498Z,50.72
2022-11-12T19:30:12.399Z,50.77
2022-11-12T19:32:45.528Z,50.70
2022-11-12T19:35:18.560Z,50.68
2022-11-12T19:37:51.405Z,50.64
2022-11-12T19:40:24.492Z,50.58
2022-11-12T19:42:57.486Z,50.62
2022-11-12T19:45:30.512Z,50.64
2022-11-12T19:48:03.448Z,50.63
2022-11-12T19:50:36.438Z,50.62
2022-11-12T19:53:09.440Z,50.62
2022-11-12T19:55:42.533Z,50.62
2022-11-12T19:58:15.521Z,50.55
2022-11-12T20:00:48.493Z,50.57
2022-11-12T20:03:21.477Z,50.56
2022-11-12T20:05:54.652Z,50.53
2022-11-12T20:08:27.429Z,50.57
2022-11-12T20:11:00.467Z,50.60
2022-11-12T20:13:33.487Z,50.58
2022-11-12T20:16:06.477Z,50.53
2022-11-12T20:18:39.374Z,50.57
2022-11-12T20:21:12.576Z,50.56
2022-11-12T20:23:45.477Z,50.48
2022-11-12T20:26:18.525Z,50.53
2022-11-12T20:28:51.532Z,50.52
2022-11-12T20:31:24.504Z,50.58
2022-11-12T20:33:57.637Z,50.63
2022-11-12T20:36:30.623Z,50.54
2022-11-12T20:39:03.602Z,50.58
2022-11-12T20:41:36.389Z,50.50
2022-11-12T20:44:09.377Z,50.56
2022-11-12T20:46:42.240Z,50.58
2022-11-12T20:49:15.507Z,50.75
2022-11-12T20:51:48.653Z,50.77
2022-11-12T20:54:21.626Z,50.85
2022-11-12T20:56:54.576Z,50.85
2022-11-12T20:59:27.549Z,50.91
2022-11-12T21:02:00.533Z,50.93
2022-11-12T21:04:33.537Z,50.96
2022-11-12T21:07:06.867Z,50.96
2022-11-12T21:09:39.662Z,51.02
2022-11-12T21:12:12.526Z,51.02
2022-11-12T21:14:50.192Z,51.09
2022-11-12T21:17:18.567Z,51.02
2022-11-12T21:19:51.547Z,51.04
2022-11-12T21:22:24.800Z,51.03
2022-11-12T21:24:57.672Z,51.12
2022-11-12T21:27:30.596Z,50.94
2022-11-12T21:30:03.753Z,50.77
2022-11-12T21:32:37.618Z,50.60
2022-11-12T21:35:10.626Z,50.83
2022-11-12T21:37:45.681Z,50.95
2022-11-12T21:40:18.476Z,50.98
2022-11-12T21:42:51.350Z,51.03
2022-11-12T21:45:24.655Z,50.97
2022-11-12T21:47:57.612Z,51.00
2022-11-12T21:50:30.393Z,51.13
2022-11-12T21:53:03.597Z,51.06
2022-11-12T21:55:36.471Z,51.13
2022-11-12T21:58:09.323Z,51.14
2022-11-12T22:00:42.943Z,51.18
2022-11-12T22:03:15.530Z,51.23
2022-11-12T22:05:48.533Z,51.20
2022-11-12T22:08:21.564Z,51.20
2022-11-12T22:10:54.517Z,51.18
2022-11-12T22:13:27.882Z,51.18
2022-11-12T22:16:00.438Z,50.41
2022-11-12T22:18:33.512Z,50.31
2022-11-12T22:21:06.532Z,50.56
2022-11-12T22:23:39.508Z,50.66
2022-11-12T22:26:12.773Z,50.77
2022-11-12T22:28:45.555Z,50.78
2022-11-12T22:31:18.516Z,50.80
2022-11-12T22:33:51.763Z,50.85
2022-11-12T22:36:24.675Z,50.88
2022-11-12T22:38:57.945Z,50.90
2022-11-12T22:41:30.538Z,50.98
2022-11-12T22:44:03.824Z,50.98
2022-11-12T22:46:36.516Z,50.97
2022-11-12T22:49:09.775Z,51.02
2022-11-12T22:51:42.716Z,51.02
2022-11-12T22:54:15.872Z,51.04
2022-11-12T22:56:48.747Z,51.04
2022-11-12T22:59:21.764Z,51.11
2022-11-12T23:01:54.759Z,51.09
2022-11-12T23:04:27.835Z,51.13
2022-11-12T23:07:00.799Z,51.13
2022-11-12T23:09:33.901Z,51.15
2022-11-12T23:12:09.645Z,51.15
2022-11-12T23:14:42.833Z,51.15
2022-11-12T23:17:15.851Z,51.15
2022-11-12T23:19:48.788Z,51.17
2022-11-12T23:22:21.734Z,51.16
2022-11-12T23:24:54.911Z,51.21
2022-11-12T23:27:27.862Z,51.18
2022-11-12T23:30:00.827Z,51.24
2022-11-12T23:32:33.786Z,51.20
2022-11-12T23:35:06.737Z,51.25
2022-11-12T23:37:39.873Z,51.26
2022-11-12T23:40:12.874Z,51.29
2022-11-12T23:42:45.788Z,51.29
2022-11-12T23:45:18.926Z,51.32
2022-11-12T23:47:51.846Z,51.30
2022-11-12T23:50:24.872Z,51.35
2022-11-12T23:52:57.851Z,51.40
2022-11-12T23:55:34.884Z,51.41
2022-11-12T23:58:03.838Z,51.42
